createdAt,value
2018-04-08T00:00:38.564Z,2.67
2018-04-08T00:03:05.455Z,2.33
2018-04-08T00:05:32.989Z,2.93
2018-04-08T00:07:59.830Z,2.40
2018-04-08T00:10:26.672Z,2.60
2018-04-08T00:12:53.475Z,2.53
2018-04-08T00:15:21.841Z,2.53
2018-04-08T00:17:49.494Z,3.30
2018-04-08T00:20:16.267Z,2.40
2018-04-08T00:22:43.996Z,2.90
2018-04-08T00:25:11.725Z,2.60
2018-04-08T00:27:38.629Z,2.60
2018-04-08T00:30:05.420Z,2.80
2018-04-08T00:32:32.182Z,2.50
2018-04-08T00:34:59.087Z,2.70
2018-04-08T00:37:25.889Z,3.10
2018-04-08T00:39:52.646Z,2.40
2018-04-08T00:42:20.928Z,2.80
2018-04-08T00:44:48.624Z,2.40
2018-04-08T00:47:15.497Z,2.60
2018-04-08T00:49:42.532Z,2.43
2018-04-08T00:52:10.824Z,2.97
2018-04-08T00:54:38.378Z,3.13
2018-04-08T00:57:05.951Z,3.53
2018-04-08T00:59:34.380Z,3.40
2018-04-08T01:02:01.442Z,3.10
2018-04-08T01:04:28.236Z,3.50
2018-04-08T01:06:55.782Z,2.73
2018-04-08T01:09:22.726Z,3.00
2018-04-08T01:11:49.527Z,2.57
2018-04-08T01:14:17.369Z,2.60
2018-04-08T01:16:45.077Z,2.73
2018-04-08T01:19:11.851Z,3.40
2018-04-08T01:21:38.713Z,2.53
2018-04-08T01:24:05.501Z,2.93
2018-04-08T01:26:34.010Z,3.03
2018-04-08T01:29:00.816Z,3.30
2018-04-08T01:31:28.334Z,2.63
2018-04-08T01:33:55.095Z,2.83
2018-04-08T01:36:22.147Z,2.90
2018-04-08T01:38:49.911Z,3.37
2018-04-08T01:41:16.724Z,3.10
2018-04-08T01:43:43.507Z,2.90
2018-04-08T01:46:10.463Z,2.73
2018-04-08T01:48:37.228Z,2.90
2018-04-08T01:51:04.750Z,2.87
2018-04-08T01:53:31.533Z,2.33
2018-04-08T01:55:59.371Z,2.60
2018-04-08T01:58:27.135Z,2.67
2018-04-08T02:00:54.262Z,2.80
2018-04-08T02:03:21.031Z,2.60
2018-04-08T02:05:47.771Z,2.57
2018-04-08T02:08:14.522Z,3.17
2018-04-08T02:10:42.392Z,2.50
2018-04-08T02:13:09.981Z,2.60
2018-04-08T02:15:36.747Z,3.50
2018-04-08T02:18:03.526Z,3.30
2018-04-08T02:20:30.320Z,3.43
2018-04-08T02:22:57.092Z,2.77
2018-04-08T02:25:24.818Z,2.43
2018-04-08T02:27:52.073Z,3.93
2018-04-08T02:30:19.368Z,3.87
2018-04-08T02:32:47.120Z,2.50
2018-04-08T02:35:13.893Z,2.80
2018-04-08T02:37:41.652Z,3.10
2018-04-08T02:40:08.485Z,3.10
2018-04-08T02:42:35.246Z,2.43
2018-04-08T02:45:02.120Z,3.33
2018-04-08T02:47:29.663Z,2.73
2018-04-08T02:49:58.108Z,3.00
2018-04-08T02:52:25.044Z,3.40
2018-04-08T02:54:52.141Z,2.43
2018-04-08T02:57:18.987Z,3.10
2018-04-08T02:59:46.060Z,2.50
2018-04-08T03:02:12.862Z,2.90
2018-04-08T03:04:40.735Z,2.60
2018-04-08T03:07:07.576Z,3.30
2018-04-08T03:09:34.387Z,3.20
2018-04-08T03:12:02.031Z,2.60
2018-04-08T03:14:29.105Z,2.50
2018-04-08T03:16:57.448Z,2.40
2018-04-08T03:19:24.526Z,2.57
2018-04-08T03:21:51.328Z,2.40
2018-04-08T03:24:18.147Z,2.30
2018-04-08T03:26:45.042Z,2.80
2018-04-08T03:29:12.006Z,2.40
2018-04-08T03:31:38.792Z,2.87
2018-04-08T03:34:06.640Z,2.97
2018-04-08T03:36:33.691Z,2.67
2018-04-08T03:39:00.498Z,2.40
2018-04-08T03:41:27.236Z,2.97
2018-04-08T03:43:54.004Z,3.00
2018-04-08T03:46:20.781Z,2.70
2018-04-08T03:48:47.741Z,2.47
2018-04-08T03:51:15.619Z,2.80
2018-04-08T03:53:43.166Z,3.30
2018-04-08T03:56:10.069Z,2.70
2018-04-08T03:58:36.922Z,2.50
2018-04-08T04:01:03.896Z,3.07
2018-04-08T04:03:31.704Z,2.50
2018-04-08T04:05:59.464Z,2.40
2018-04-08T04:08:26.991Z,3.13
2018-04-08T04:10:53.889Z,3.00
2018-04-08T04:13:22.240Z,3.00
2018-04-08T04:15:49.249Z,3.13
2018-04-08T04:18:34.734Z,2.27
2018-04-08T04:21:20.124Z,3.40
2018-04-08T04:24:06.191Z,3.10
2018-04-08T04:26:33.004Z,3.40
2018-04-08T04:29:00.672Z,3.17
2018-04-08T04:31:29.311Z,3.27
2018-04-08T04:33:56.249Z,3.03
2018-04-08T04:36:23.095Z,3.00
2018-04-08T04:38:49.905Z,2.83
2018-04-08T04:41:17.511Z,3.00
2018-04-08T04:43:44.340Z,3.10
2018-04-08T04:46:12.367Z,2.90
2018-04-08T04:48:39.896Z,3.07
2018-04-08T04:51:06.793Z,3.20
2018-04-08T04:53:34.672Z,2.67
2018-04-08T04:56:02.553Z,3.77
2018-04-08T04:58:29.593Z,2.50
2018-04-08T05:00:57.216Z,3.00
2018-04-08T05:03:23.964Z,2.70
2018-04-08T05:05:50.838Z,2.80
2018-04-08T05:08:17.753Z,2.97
2018-04-08T05:10:45.470Z,3.10
2018-04-08T05:13:13.106Z,4.43
2018-04-08T05:15:39.995Z,3.03
2018-04-08T05:18:07.862Z,3.03
2018-04-08T05:20:35.381Z,3.00
2018-04-08T05:23:03.724Z,3.17
2018-04-08T05:25:31.195Z,2.50
2018-04-08T05:27:58.312Z,3.33
2018-04-08T05:30:25.098Z,3.13
2018-04-08T05:32:51.918Z,2.80
2018-04-08T05:35:19.468Z,2.60
2018-04-08T05:37:47.787Z,2.70
2018-04-08T05:40:15.128Z,2.60
2018-04-08T05:42:42.832Z,3.20
2018-04-08T05:45:09.637Z,2.93
2018-04-08T05:47:37.220Z,3.10
2018-04-08T05:50:05.161Z,3.30
2018-04-08T05:52:32.418Z,2.80
2018-04-08T05:54:59.242Z,2.70
2018-04-08T05:57:26.120Z,2.40
2018-04-08T05:59:53.753Z,2.57
2018-04-08T06:02:20.538Z,3.50
2018-04-08T06:04:48.071Z,2.80
2018-04-08T06:07:14.925Z,2.50
2018-04-08T06:09:42.811Z,2.60
2018-04-08T06:12:10.273Z,2.60
2018-04-08T06:14:37.064Z,2.83
2018-04-08T06:17:03.877Z,2.80
2018-04-08T06:19:30.622Z,2.40
2018-04-08T06:21:57.617Z,2.87
2018-04-08T06:24:24.407Z,2.87
2018-04-08T06:26:51.418Z,1.93
2018-04-08T06:29:18.184Z,2.73
2018-04-08T06:31:44.984Z,2.20
2018-04-08T06:34:13.020Z,2.03
2018-04-08T06:36:39.801Z,3.00
2018-04-08T06:39:07.362Z,2.43
2018-04-08T06:41:35.171Z,2.13
2018-04-08T06:44:02.101Z,2.03
2018-04-08T06:46:29.018Z,2.13
2018-04-08T06:48:57.208Z,1.60
2018-04-08T06:51:24.773Z,2.00
2018-04-08T06:53:51.600Z,2.33
2018-04-08T06:56:18.400Z,2.40
2018-04-08T06:58:45.202Z,2.10
2018-04-08T07:01:12.148Z,2.23
2018-04-08T07:03:39.089Z,1.70
2018-04-08T07:06:06.822Z,2.20
2018-04-08T07:08:34.072Z,2.23
2018-04-08T07:11:00.949Z,2.53
2018-04-08T07:13:27.833Z,1.63
2018-04-08T07:15:54.784Z,1.50
2018-04-08T07:18:21.673Z,1.83
2018-04-08T07:20:49.336Z,3.10
2018-04-08T07:23:17.605Z,2.20
2018-04-08T07:25:44.789Z,2.53
2018-04-08T07:28:11.806Z,1.80
2018-04-08T07:30:39.424Z,2.33
2018-04-08T07:33:06.229Z,2.23
2018-04-08T07:35:33.108Z,1.70
2018-04-08T07:38:00.398Z,1.97
2018-04-08T07:40:27.200Z,1.97
2018-04-08T07:42:54.020Z,1.80
2018-04-08T07:45:21.749Z,2.40
2018-04-08T07:47:48.683Z,2.23
2018-04-08T07:50:15.444Z,2.03
2018-04-08T07:52:42.306Z,3.00
2018-04-08T07:55:09.148Z,2.27
2018-04-08T07:57:36.123Z,2.50
2018-04-08T08:00:03.831Z,6.50
2018-04-08T08:02:31.412Z,4.50
2018-04-08T08:04:58.990Z,12.63
2018-04-08T08:07:26.779Z,9.97
2018-04-08T08:09:53.946Z,9.83
2018-04-08T08:12:20.741Z,9.70
2018-04-08T08:14:47.613Z,10.17
2018-04-08T08:17:14.471Z,9.30
2018-04-08T08:19:41.336Z,8.73
2018-04-08T08:22:08.205Z,7.70
2018-04-08T08:24:34.995Z,8.13
2018-04-08T08:27:01.836Z,9.30
2018-04-08T08:29:28.750Z,9.90
2018-04-08T08:31:55.968Z,7.27
2018-04-08T08:34:22.925Z,7.10
2018-04-08T08:36:49.889Z,6.97
2018-04-08T08:39:16.939Z,7.13
2018-04-08T08:41:43.996Z,6.70
2018-04-08T08:44:11.546Z,9.77
2018-04-08T08:46:38.470Z,7.17
2018-04-08T08:49:05.535Z,7.10
2018-04-08T08:51:32.354Z,6.17
2018-04-08T08:53:59.233Z,6.30
2018-04-08T08:56:26.816Z,6.17
2018-04-08T08:58:55.607Z,6.50
2018-04-08T09:01:23.229Z,7.17
2018-04-08T09:03:51.023Z,5.07
2018-04-08T09:06:17.813Z,7.07
2018-04-08T09:08:45.364Z,8.17
2018-04-08T09:11:13.143Z,7.10
2018-04-08T09:13:40.670Z,5.93
2018-04-08T09:16:07.980Z,5.73
2018-04-08T09:18:34.848Z,7.67
2018-04-08T09:21:04.183Z,6.40
2018-04-08T09:26:40.497Z,6.30
2018-04-08T09:29:07.410Z,6.03
2018-04-08T09:31:34.312Z,11.33
2018-04-08T09:34:01.520Z,11.80
2018-04-08T09:36:28.537Z,12.73
2018-04-08T09:38:55.403Z,15.70
2018-04-08T09:41:22.298Z,11.87
2018-04-08T09:43:49.202Z,15.63
2018-04-08T09:46:16.196Z,11.97
2018-04-08T09:48:43.155Z,14.00
2018-04-08T09:51:10.750Z,15.20
2018-04-08T09:53:38.442Z,16.63
2018-04-08T09:56:05.342Z,11.40
2018-04-08T09:58:39.351Z,12.20
2018-04-08T10:01:13.249Z,15.00
2018-04-08T10:03:41.029Z,16.63
2018-04-08T10:06:08.972Z,16.43
2018-04-08T10:08:36.702Z,17.27
2018-04-08T10:11:03.724Z,15.43
2018-04-08T10:13:30.662Z,14.00
2018-04-08T10:15:58.233Z,15.13
2018-04-08T10:18:25.288Z,17.63
2018-04-08T10:20:52.328Z,18.50
2018-04-08T10:23:19.705Z,16.60
2018-04-08T10:25:46.933Z,14.73
2018-04-08T10:28:13.860Z,16.33
2018-04-08T10:30:40.788Z,12.67
2018-04-08T10:33:08.519Z,17.10
2018-04-08T10:35:35.589Z,12.67
2018-04-08T10:38:02.989Z,12.73
2018-04-08T10:40:30.200Z,13.00
2018-04-08T10:42:57.863Z,11.53
2018-04-08T10:45:24.836Z,10.40
2018-04-08T10:47:52.821Z,11.67
2018-04-08T10:50:19.837Z,13.30
2018-04-08T10:52:46.736Z,16.10
2018-04-08T10:55:13.616Z,11.70
2018-04-08T10:57:40.584Z,11.03
2018-04-08T11:00:07.865Z,13.47
2018-04-08T11:02:35.646Z,13.40
2018-04-08T11:05:04.153Z,11.90
2018-04-08T11:28:33.139Z,13.73
2018-04-08T11:31:00.180Z,13.80
2018-04-08T11:33:27.434Z,13.40
2018-04-08T11:35:54.285Z,12.10
2018-04-08T11:38:21.132Z,12.10
2018-04-08T11:40:47.985Z,11.50
2018-04-08T11:43:14.945Z,11.60
2018-04-08T11:45:41.730Z,14.43
2018-04-08T11:48:08.564Z,15.03
2018-04-08T11:50:36.208Z,14.90
2018-04-08T11:53:03.044Z,15.13
2018-04-08T11:55:29.829Z,14.73
2018-04-08T11:57:57.309Z,14.57
2018-04-08T12:00:24.079Z,13.60
2018-04-08T12:02:51.150Z,14.17
2018-04-08T12:05:18.049Z,14.33
2018-04-08T12:07:44.889Z,13.03
2018-04-08T12:10:12.617Z,15.17
2018-04-08T12:12:39.515Z,12.60
2018-04-08T12:15:06.412Z,13.97
2018-04-08T12:17:33.262Z,13.13
2018-04-08T12:20:00.260Z,13.00
2018-04-08T12:22:27.873Z,13.57
2018-04-08T12:24:54.724Z,15.87
2018-04-08T12:27:21.670Z,14.80
2018-04-08T12:29:48.631Z,14.17
2018-04-08T12:32:15.424Z,14.83
2018-04-08T12:34:42.343Z,17.77
2018-04-08T12:37:09.384Z,17.50
2018-04-08T12:39:36.245Z,18.40
2018-04-08T12:42:03.082Z,18.57
2018-04-08T12:44:30.138Z,18.20
2018-04-08T12:46:57.070Z,18.30
2018-04-08T12:49:23.887Z,19.53
2018-04-08T12:51:50.638Z,18.93
2018-04-08T12:54:17.511Z,19.03
2018-04-08T12:56:44.464Z,17.17
2018-04-08T12:59:11.315Z,18.53
2018-04-08T13:01:38.089Z,17.40
2018-04-08T13:04:05.012Z,18.37
2018-04-08T13:06:31.952Z,15.57
2018-04-08T13:08:58.799Z,15.90
2018-04-08T13:11:25.653Z,15.13
2018-04-08T13:13:52.500Z,13.87
2018-04-08T13:16:19.395Z,14.20
2018-04-08T13:18:47.005Z,14.20
2018-04-08T13:21:13.741Z,12.33
2018-04-08T13:23:40.541Z,14.17
2018-04-08T13:26:07.361Z,12.17
2018-04-08T13:28:34.309Z,11.53
2018-04-08T13:31:01.109Z,13.13
2018-04-08T13:33:28.032Z,11.37
2018-04-08T13:35:54.974Z,11.00
2018-04-08T13:38:21.847Z,11.80
2018-04-08T13:40:49.411Z,13.37
2018-04-08T13:43:17.051Z,12.53
2018-04-08T13:45:43.836Z,10.57
2018-04-08T13:48:10.594Z,11.20
2018-04-08T13:50:37.470Z,9.47
2018-04-08T13:53:04.226Z,11.40
2018-04-08T13:55:31.179Z,9.27
2018-04-08T13:57:57.920Z,9.33
2018-04-08T14:00:24.875Z,7.97
2018-04-08T14:02:51.680Z,8.30
2018-04-08T14:05:18.673Z,8.00
2018-04-08T14:07:45.630Z,8.60
2018-04-08T14:10:13.950Z,8.10
2018-04-08T14:12:41.010Z,8.13
2018-04-08T14:15:07.900Z,7.33
2018-04-08T14:17:34.856Z,10.43
2018-04-08T14:20:01.618Z,8.93
2018-04-08T14:22:28.485Z,7.53
2018-04-08T14:24:56.109Z,7.03
2018-04-08T14:27:22.994Z,10.00
2018-04-08T14:29:50.586Z,7.57
2018-04-08T14:32:17.539Z,8.40
2018-04-08T14:34:44.317Z,8.90
2018-04-08T14:37:11.290Z,7.97
2018-04-08T14:39:38.220Z,10.77
2018-04-08T14:42:05.023Z,8.30
2018-04-08T14:44:31.919Z,10.07
2018-04-08T14:46:59.064Z,7.20
2018-04-08T14:49:25.926Z,9.67
2018-04-08T14:51:52.800Z,9.33
2018-04-08T14:54:20.745Z,8.77
2018-04-08T14:56:48.004Z,7.70
2018-04-08T14:59:14.839Z,12.10
2018-04-08T15:01:46.663Z,9.33
2018-04-08T15:04:08.480Z,8.10
2018-04-08T15:06:35.927Z,7.00
2018-04-08T15:09:02.936Z,7.63
2018-04-08T15:11:29.814Z,9.57
2018-04-08T15:13:56.613Z,8.07
2018-04-08T15:16:23.435Z,8.70
2018-04-08T15:18:50.207Z,9.20
2018-04-08T15:21:17.221Z,8.60
2018-04-08T15:23:44.151Z,9.07
2018-04-08T15:26:10.904Z,12.23
2018-04-08T15:28:37.957Z,9.70
2018-04-08T15:31:04.919Z,11.27
2018-04-08T15:33:32.430Z,9.27
2018-04-08T15:35:59.409Z,7.93
2018-04-08T15:38:26.388Z,9.53
2018-04-08T15:40:53.228Z,7.90
2018-04-08T15:43:20.065Z,7.70
2018-04-08T15:45:47.087Z,6.10
2018-04-08T15:48:14.149Z,7.57
2018-04-08T15:50:41.329Z,7.03
2018-04-08T15:53:08.011Z,6.33
2018-04-08T15:55:35.831Z,9.73
2018-04-08T15:58:03.458Z,6.70
2018-04-08T16:00:30.353Z,8.80
2018-04-08T16:02:57.276Z,7.30
2018-04-08T16:05:24.039Z,6.13
2018-04-08T16:07:50.860Z,7.23
2018-04-08T16:10:17.696Z,7.43
2018-04-08T16:12:44.560Z,6.20
2018-04-08T16:15:11.397Z,6.37
2018-04-08T16:17:38.244Z,8.53
2018-04-08T16:20:05.032Z,6.47
2018-04-08T16:22:31.874Z,6.30
2018-04-08T16:24:58.700Z,5.90
2018-04-08T16:27:25.573Z,7.80
2018-04-08T16:29:52.735Z,7.93
2018-04-08T16:32:19.477Z,7.90
2018-04-08T16:34:46.275Z,6.77
2018-04-08T16:37:13.247Z,6.13
2018-04-08T16:39:40.130Z,6.97
2018-04-08T16:42:06.978Z,13.10
2018-04-08T16:44:33.738Z,11.07
2018-04-08T16:47:00.787Z,14.47
2018-04-08T16:49:27.552Z,13.03
2018-04-08T16:51:55.145Z,10.40
2018-04-08T16:54:21.954Z,10.03
2018-04-08T16:56:48.746Z,11.00
2018-04-08T16:59:15.667Z,14.53
2018-04-08T17:01:42.464Z,9.30
2018-04-08T17:04:09.408Z,9.40
2018-04-08T17:06:36.321Z,8.90
2018-04-08T17:09:03.221Z,11.40
2018-04-08T17:11:30.077Z,9.97
2018-04-08T17:13:56.833Z,10.10
2018-04-08T17:16:25.064Z,6.43
2018-04-08T17:18:51.871Z,8.20
2018-04-08T17:21:19.405Z,9.90
2018-04-08T17:23:46.265Z,7.53
2018-04-08T17:26:13.066Z,7.60
2018-04-08T17:28:40.129Z,5.80
2018-04-08T17:31:07.008Z,9.13
2018-04-08T17:33:34.050Z,8.10
2018-04-08T17:36:00.916Z,7.10
2018-04-08T17:38:27.848Z,5.73
2018-04-08T17:40:54.710Z,6.50
2018-04-08T17:43:21.524Z,8.43
2018-04-08T17:45:48.619Z,6.77
2018-04-08T17:48:15.525Z,8.97
2018-04-08T17:50:42.284Z,13.40
2018-04-08T17:53:09.042Z,8.23
2018-04-08T17:55:36.002Z,10.97
2018-04-08T17:58:02.783Z,10.70
2018-04-08T18:00:30.415Z,10.00
2018-04-08T18:02:57.259Z,9.97
2018-04-08T18:05:24.117Z,11.73
2018-04-08T18:07:51.070Z,8.00
2018-04-08T18:10:18.121Z,10.50
2018-04-08T18:12:45.016Z,16.20
2018-04-08T18:15:11.831Z,14.17
2018-04-08T18:17:39.573Z,12.60
2018-04-08T18:20:06.510Z,9.50
2018-04-08T18:22:33.482Z,9.40
2018-04-08T18:25:00.476Z,10.40
2018-04-08T18:27:27.456Z,8.33
2018-04-08T18:29:54.957Z,9.73
2018-04-08T18:32:23.365Z,8.20
2018-04-08T18:34:50.974Z,11.37
2018-04-08T18:37:17.891Z,9.93
2018-04-08T18:39:44.799Z,10.93
2018-04-08T18:42:11.746Z,6.33
2018-04-08T18:44:38.705Z,6.43
2018-04-08T18:47:05.580Z,8.50
2018-04-08T18:49:33.309Z,6.57
2018-04-08T18:52:00.367Z,6.13
2018-04-08T18:54:27.345Z,5.27
2018-04-08T18:56:54.980Z,5.23
2018-04-08T18:59:21.775Z,4.63
2018-04-08T19:01:48.571Z,4.97
2018-04-08T19:04:15.370Z,4.67
2018-04-08T19:06:42.239Z,6.50
2018-04-08T19:09:09.427Z,3.37
2018-04-08T19:11:36.270Z,4.23
2018-04-08T19:14:03.348Z,3.70
2018-04-08T19:16:30.248Z,3.97
2018-04-08T19:18:57.183Z,4.43
2018-04-08T19:21:24.099Z,4.00
2018-04-08T19:23:51.674Z,3.20
2018-04-08T19:26:19.546Z,3.37
2018-04-08T19:28:47.011Z,3.40
2018-04-08T19:31:14.593Z,3.03
2018-04-08T19:33:41.490Z,3.40
2018-04-08T19:36:08.431Z,3.60
2018-04-08T19:38:35.633Z,3.70
2018-04-08T19:41:03.261Z,3.23
2018-04-08T19:43:30.215Z,3.97
2018-04-08T19:45:57.066Z,3.60
2018-04-08T19:48:23.927Z,3.90
2018-04-08T19:50:50.865Z,3.63
2018-04-08T19:53:17.812Z,3.43
2018-04-08T19:55:44.895Z,4.00
2018-04-08T19:58:12.528Z,4.50
2018-04-08T20:00:39.494Z,4.20
2018-04-08T20:03:06.527Z,4.57
2018-04-08T20:05:33.468Z,4.10
2018-04-08T20:08:00.370Z,5.27
2018-04-08T20:10:28.016Z,4.10
2018-04-08T20:12:54.845Z,4.50
2018-04-08T20:15:21.681Z,4.23
2018-04-08T20:17:48.771Z,4.50
2018-04-08T20:20:16.411Z,5.40
2018-04-08T20:22:43.237Z,5.07
2018-04-08T20:25:10.100Z,5.17
2018-04-08T20:27:37.262Z,4.90
2018-04-08T20:30:04.308Z,4.77
2018-04-08T20:32:31.266Z,5.70
2018-04-08T20:34:58.119Z,4.27
2018-04-08T20:37:25.021Z,5.37
2018-04-08T20:39:52.044Z,5.47
2018-04-08T20:42:19.626Z,4.80
2018-04-08T20:44:46.434Z,5.37
2018-04-08T20:47:13.507Z,5.43
2018-04-08T20:49:41.242Z,6.40
2018-04-08T20:52:08.203Z,6.10
2018-04-08T20:54:35.270Z,5.90
2018-04-08T20:57:02.094Z,5.60
2018-04-08T20:59:28.979Z,5.33
2018-04-08T21:01:56.463Z,5.57
2018-04-08T21:04:23.372Z,6.00
2018-04-08T21:06:50.167Z,5.93
2018-04-08T21:09:16.991Z,5.73
2018-04-08T21:11:44.613Z,5.93
2018-04-08T21:14:11.823Z,4.63
2018-04-08T21:16:38.735Z,5.27
2018-04-08T21:19:05.779Z,5.30
2018-04-08T21:21:32.580Z,5.70
2018-04-08T21:23:59.582Z,5.50
2018-04-08T21:26:26.413Z,5.53
2018-04-08T21:28:53.372Z,5.87
2018-04-08T21:31:20.519Z,5.90
2018-04-08T21:33:47.260Z,5.53
2018-04-08T21:36:14.240Z,5.33
2018-04-08T21:38:41.098Z,6.30
2018-04-08T21:41:08.677Z,5.50
2018-04-08T21:43:36.396Z,6.17
2018-04-08T21:46:03.353Z,5.33
2018-04-08T21:48:30.297Z,6.47
2018-04-08T21:50:57.106Z,6.30
2018-04-08T21:53:24.225Z,5.53
2018-04-08T21:55:51.270Z,6.97
2018-04-08T21:58:18.101Z,5.73
2018-04-08T22:00:45.165Z,5.97
2018-04-08T22:03:11.996Z,5.30
2018-04-08T22:05:38.817Z,6.20
2018-04-08T22:08:05.645Z,6.07
2018-04-08T22:10:33.420Z,7.50
2018-04-08T22:13:00.452Z,6.67
2018-04-08T22:15:27.293Z,6.63
2018-04-08T22:17:54.123Z,7.23
2018-04-08T22:20:21.066Z,6.37
2018-04-08T22:22:48.019Z,6.83
2018-04-08T22:25:14.877Z,7.30
2018-04-08T22:27:41.714Z,7.13
2018-04-08T22:30:08.862Z,6.20
2018-04-08T22:32:35.533Z,7.10
2018-04-08T22:35:02.425Z,6.40
2018-04-08T22:37:29.235Z,7.00
2018-04-08T22:39:56.189Z,6.60
2018-04-08T22:42:23.290Z,6.70
2018-04-08T22:44:50.170Z,8.23
2018-04-08T22:47:17.216Z,6.93
2018-04-08T22:49:44.059Z,7.53
2018-04-08T22:52:10.913Z,7.47
2018-04-08T22:54:37.692Z,7.70
2018-04-08T22:57:05.251Z,6.97
2018-04-08T22:59:32.171Z,6.80
2018-04-08T23:01:59.130Z,7.60
2018-04-08T23:04:25.966Z,7.00
2018-04-08T23:06:52.814Z,7.43
2018-04-08T23:09:19.613Z,7.57
2018-04-08T23:11:46.391Z,7.77
2018-04-08T23:14:13.258Z,6.20
2018-04-08T23:16:40.050Z,7.23
2018-04-08T23:19:07.563Z,7.70
2018-04-08T23:21:34.361Z,6.17
2018-04-08T23:24:01.925Z,6.67
2018-04-08T23:26:28.652Z,6.43
2018-04-08T23:28:56.443Z,6.63
2018-04-08T23:31:24.887Z,6.20
2018-04-08T23:33:51.924Z,6.30
2018-04-08T23:36:18.883Z,6.83
2018-04-08T23:38:45.732Z,6.40
2018-04-08T23:41:12.500Z,6.20
2018-04-08T23:43:39.622Z,6.13
2018-04-08T23:46:06.572Z,6.13
2018-04-08T23:48:33.316Z,6.03
2018-04-08T23:51:00.177Z,6.43
2018-04-08T23:53:26.991Z,5.70
2018-04-08T23:55:53.809Z,5.80
2018-04-08T23:58:21.433Z,6.10
